Time;durP1;ratioP1;P1;durP2;ratioP2;P2;SDS_P1;SDS_P2;PMS_P1;PMS_P2;Temp;Humidity;BMP_temperature;BMP_pressure;BME280_temperature;BME280_humidity;BME280_pressure;Samples;Min_cycle;Max_cycle;Signal;HPM_P1;HPM_P2
2023/04/07 00:03:05;;;;;;;2.37;2.37;;;;;;;;;;6344180;28;20283;-80
2023/04/07 00:06:13;;;;;;;2.73;2.73;;;;;;;;;;6362707;28;20303;-80
2023/04/07 00:09:18;;;;;;;3.00;2.90;;;;;;;;;;6350542;28;20464;-80
2023/04/07 00:12:23;;;;;;;2.70;2.60;;;;;;;;;;6361834;28;20483;-80
2023/04/07 00:15:29;;;;;;;2.83;2.73;;;;;;;;;;6362340;28;20301;-81
2023/04/07 00:18:35;;;;;;;2.70;2.60;;;;;;;;;;6361499;28;20299;-81
2023/04/07 00:21:40;;;;;;;2.90;2.80;;;;;;;;;;6361900;28;20293;-80
2023/04/07 00:24:45;;;;;;;2.97;2.87;;;;;;;;;;6362476;28;20308;-80
2023/04/07 00:27:50;;;;;;;2.90;2.83;;;;;;;;;;6343899;28;20301;-80
2023/04/07 00:30:57;;;;;;;2.67;2.60;;;;;;;;;;6362020;28;20293;-80
2023/04/07 00:34:02;;;;;;;3.23;3.07;;;;;;;;;;6361660;28;20290;-80
2023/04/07 00:37:07;;;;;;;3.17;3.07;;;;;;;;;;6358503;27;20303;-80
2023/04/07 00:40:13;;;;;;;3.03;2.93;;;;;;;;;;6362107;28;20285;-81
2023/04/07 00:43:18;;;;;;;3.13;3.03;;;;;;;;;;6361720;28;20289;-78
2023/04/07 00:46:25;;;;;;;2.77;2.67;;;;;;;;;;6361309;28;20609;-80
2023/04/07 00:49:30;;;;;;;2.90;2.80;;;;;;;;;;6360468;28;20293;-80
2023/04/07 00:52:35;;;;;;;3.20;3.03;;;;;;;;;;6359581;28;20293;-79
2023/04/07 00:55:40;;;;;;;2.73;2.63;;;;;;;;;;6360652;28;20294;-80
2023/04/07 00:58:46;;;;;;;2.87;2.77;;;;;;;;;;6359369;28;20292;-79
2023/04/07 01:01:59;;;;;;;3.40;3.30;;;;;;;;;;6361104;28;20292;-79
2023/04/07 01:05:10;;;;;;;2.90;2.77;;;;;;;;;;6351960;22;20312;-77
2023/04/07 01:08:21;;;;;;;3.30;3.10;;;;;;;;;;6335677;28;20290;-77
2023/04/07 01:11:31;;;;;;;3.30;3.20;;;;;;;;;;6317532;28;20290;-77
2023/04/07 01:14:45;;;;;;;3.50;3.40;;;;;;;;;;6334760;28;20453;-78
2023/04/07 01:18:21;;;;;;;3.27;3.17;;;;;;;;;;6334586;28;20290;-77
2023/04/07 01:21:28;;;;;;;4.20;3.90;;;;;;;;;;6333891;28;20196;-77
2023/04/07 01:24:51;;;;;;;3.33;3.13;;;;;;;;;;6318291;28;20114;-78
2023/04/07 01:28:16;;;;;;;4.23;3.93;;;;;;;;;;6333726;28;20297;-78
2023/04/07 01:31:24;;;;;;;4.90;4.50;;;;;;;;;;6333379;28;20322;-78
2023/04/07 01:34:32;;;;;;;4.60;4.20;;;;;;;;;;6301158;28;20295;-77
2023/04/07 01:37:38;;;;;;;4.47;4.17;;;;;;;;;;6331445;28;20286;-77
2023/04/07 01:40:44;;;;;;;4.70;4.30;;;;;;;;;;6335377;28;20326;-79
2023/04/07 01:43:49;;;;;;;;;;;;;;;;;;6335473;28;20295;-79
2023/04/07 01:46:56;;;;;;;6.10;4.53;;;;;;;;;;6334494;28;20272;-77
2023/04/07 01:50:04;;;;;;;4.90;4.47;;;;;;;;;;6334418;28;20517;-77
2023/04/07 01:53:12;;;;;;;7.40;4.33;;;;;;;;;;6319283;28;20132;-77
2023/04/07 01:56:17;;;;;;;5.10;4.50;;;;;;;;;;6334846;28;20202;-77
2023/04/07 01:59:26;;;;;;;4.80;4.40;;;;;;;;;;6332578;28;20306;-78
2023/04/07 02:02:37;;;;;;;4.90;4.50;;;;;;;;;;6333202;28;20437;-77
2023/04/07 02:05:42;;;;;;;4.93;4.47;;;;;;;;;;6334272;28;20303;-77
2023/04/07 02:08:50;;;;;;;6.40;5.00;;;;;;;;;;6334598;28;20289;-77
2023/04/07 02:11:56;;;;;;;4.73;4.17;;;;;;;;;;6332573;28;20456;-77
2023/04/07 02:15:05;;;;;;;7.47;4.83;;;;;;;;;;6333421;28;20307;-77
2023/04/07 02:18:17;;;;;;;5.10;4.63;;;;;;;;;;6333254;28;20388;-78
2023/04/07 02:21:23;;;;;;;5.60;5.00;;;;;;;;;;6332174;28;20293;-77
2023/04/07 02:24:28;;;;;;;6.07;5.30;;;;;;;;;;6333245;28;20570;-78
2023/04/07 02:27:33;;;;;;;8.03;5.13;;;;;;;;;;6332493;28;20321;-77
2023/04/07 02:30:38;;;;;;;8.10;5.10;;;;;;;;;;6334895;28;20308;-78
2023/04/07 02:33:45;;;;;;;5.10;4.67;;;;;;;;;;6332413;28;20294;-77
2023/04/07 02:36:50;;;;;;;6.50;5.23;;;;;;;;;;6332503;28;20438;-77
2023/04/07 02:39:55;;;;;;;7.30;5.30;;;;;;;;;;6334579;28;20305;-77
2023/04/07 02:43:00;;;;;;;5.73;5.00;;;;;;;;;;6333780;28;20299;-78
2023/04/07 02:46:05;;;;;;;11.70;5.20;;;;;;;;;;6334294;28;20302;-77
2023/04/07 02:49:12;;;;;;;9.03;5.53;;;;;;;;;;6332230;28;20298;-77
2023/04/07 02:52:17;;;;;;;5.53;4.93;;;;;;;;;;6332879;28;20593;-77
2023/04/07 02:55:22;;;;;;;7.40;5.40;;;;;;;;;;6334107;28;20300;-77
2023/04/07 02:58:27;;;;;;;8.13;5.47;;;;;;;;;;6333893;28;20320;-79
2023/04/07 03:01:33;;;;;;;8.63;5.33;;;;;;;;;;6330944;28;20291;-77
2023/04/07 03:04:40;;;;;;;11.07;5.83;;;;;;;;;;6333851;28;20295;-78
2023/04/07 03:07:54;;;;;;;8.73;5.03;;;;;;;;;;6316464;28;20302;-78
2023/04/07 03:11:00;;;;;;;7.90;5.57;;;;;;;;;;6333384;28;20326;-77
2023/04/07 03:14:07;;;;;;;6.67;4.83;;;;;;;;;;6315238;28;20592;-77
2023/04/07 03:17:18;;;;;;;6.63;4.47;;;;;;;;;;6315388;28;20298;-77
2023/04/07 03:20:26;;;;;;;9.27;5.10;;;;;;;;;;6315687;28;20298;-78
2023/04/07 03:23:31;;;;;;;8.97;5.47;;;;;;;;;;6333323;28;20288;-77
2023/04/07 03:26:37;;;;;;;7.60;4.83;;;;;;;;;;6331474;28;20285;-77
2023/04/07 03:29:50;;;;;;;8.43;4.63;;;;;;;;;;6332366;28;20268;-77
2023/04/07 03:32:56;;;;;;;11.97;5.30;;;;;;;;;;6331980;28;20287;-78
2023/04/07 03:36:03;;;;;;;12.07;5.60;;;;;;;;;;6336015;28;20372;-78
2023/04/07 03:39:09;;;;;;;7.80;5.77;;;;;;;;;;6336669;28;20293;-78
2023/04/07 03:42:14;;;;;;;7.47;4.80;;;;;;;;;;6336669;28;20293;-78
2023/04/07 03:45:20;;;;;;;10.50;5.73;;;;;;;;;;6337265;28;20475;-78
2023/04/07 03:48:28;;;;;;;6.47;5.50;;;;;;;;;;6336256;28;20290;-77
2023/04/07 03:51:46;;;;;;;7.40;5.43;;;;;;;;;;6336227;28;20293;-77
2023/04/07 03:54:54;;;;;;;11.50;5.63;;;;;;;;;;6336774;28;20297;-78
2023/04/07 03:58:05;;;;;;;11.70;6.17;;;;;;;;;;6337122;28;20305;-77
2023/04/07 04:01:13;;;;;;;10.97;5.60;;;;;;;;;;6337942;28;20475;-77
2023/04/07 04:04:20;;;;;;;11.57;5.47;;;;;;;;;;6337300;28;20303;-77
2023/04/07 04:07:27;;;;;;;10.27;6.10;;;;;;;;;;6338483;28;20304;-77
2023/04/07 04:10:39;;;;;;;9.20;5.90;;;;;;;;;;6343371;28;20291;-77
2023/04/07 04:13:44;;;;;;;9.23;5.23;;;;;;;;;;6340364;28;20303;-78
2023/04/07 04:16:49;;;;;;;14.90;5.63;;;;;;;;;;6342766;28;20314;-77
2023/04/07 04:20:17;;;;;;;6.73;5.30;;;;;;;;;;6344429;28;20285;-77
2023/04/07 04:23:27;;;;;;;11.83;5.93;;;;;;;;;;6343711;28;20300;-78
2023/04/07 04:26:34;;;;;;;11.23;5.87;;;;;;;;;;6343721;28;20281;-78
2023/04/07 04:29:47;;;;;;;11.30;6.07;;;;;;;;;;6342934;28;20270;-78
2023/04/07 04:32:55;;;;;;;10.40;5.67;;;;;;;;;;6342508;28;20291;-78
2023/04/07 04:36:25;;;;;;;12.97;5.60;;;;;;;;;;6339255;28;20285;-77
2023/04/07 04:39:36;;;;;;;15.93;5.63;;;;;;;;;;6339691;28;20485;-78
2023/04/07 04:42:42;;;;;;;8.90;5.33;;;;;;;;;;6338788;28;20295;-78
2023/04/07 04:45:49;;;;;;;11.20;5.50;;;;;;;;;;6338608;28;20358;-78
2023/04/07 04:48:58;;;;;;;10.17;5.43;;;;;;;;;;6340906;28;20481;-78
2023/04/07 04:52:03;;;;;;;12.40;5.83;;;;;;;;;;6347226;28;20324;-78
2023/04/07 04:55:17;;;;;;;10.70;6.00;;;;;;;;;;6350151;28;20281;-78
2023/04/07 04:58:23;;;;;;;15.47;5.97;;;;;;;;;;6348892;28;20301;-78
2023/04/07 05:01:32;;;;;;;10.77;6.00;;;;;;;;;;6333290;28;20256;-77
2023/04/07 05:04:45;;;;;;;7.77;5.27;;;;;;;;;;6348978;28;20311;-78
2023/04/07 05:08:01;;;;;;;10.90;5.47;;;;;;;;;;6350709;28;20253;-77
2023/04/07 05:11:13;;;;;;;14.00;5.93;;;;;;;;;;6349376;28;20278;-78
2023/04/07 05:14:20;;;;;;;13.37;5.53;;;;;;;;;;6349189;28;20300;-77
2023/04/07 05:17:31;;;;;;;15.73;5.67;;;;;;;;;;6349007;28;20322;-77
2023/04/07 05:20:38;;;;;;;12.90;5.23;;;;;;;;;;6349448;28;20244;-77
2023/04/07 05:23:45;;;;;;;13.00;5.40;;;;;;;;;;6332454;28;20233;-78
2023/04/07 05:26:52;;;;;;;12.37;4.97;;;;;;;;;;6349377;28;20309;-78
2023/04/07 05:29:57;;;;;;;12.37;4.77;;;;;;;;;;6351094;28;20284;-78
2023/04/07 05:33:07;;;;;;;15.17;5.20;;;;;;;;;;6349057;28;20457;-78
2023/04/07 05:36:26;;;;;;;13.03;5.13;;;;;;;;;;6350328;28;20308;-78
2023/04/07 05:39:34;;;;;;;8.57;5.13;;;;;;;;;;6350355;28;20293;-78
2023/04/07 05:42:42;;;;;;;10.30;5.60;;;;;;;;;;6348852;28;20300;-78
2023/04/07 05:45:48;;;;;;;6.57;4.40;;;;;;;;;;6350785;28;20286;-78
2023/04/07 05:48:54;;;;;;;6.10;5.03;;;;;;;;;;6348993;28;20286;-79
2023/04/07 05:52:02;;;;;;;10.57;5.63;;;;;;;;;;6348095;28;20302;-77
2023/04/07 05:55:08;;;;;;;11.47;5.67;;;;;;;;;;6333311;28;20302;-78
2023/04/07 05:58:16;;;;;;;8.83;4.77;;;;;;;;;;6348173;28;20295;-77
2023/04/07 06:01:26;;;;;;;11.10;6.03;;;;;;;;;;6348424;28;20286;-77
2023/04/07 06:04:34;;;;;;;14.57;6.10;;;;;;;;;;6364184;28;20272;-77
2023/04/07 06:07:41;;;;;;;12.33;5.97;;;;;;;;;;6357107;28;20302;-77
2023/04/07 06:10:47;;;;;;;11.60;5.43;;;;;;;;;;6357243;28;20282;-78
2023/04/07 06:13:54;;;;;;;13.03;5.77;;;;;;;;;;6375208;28;20245;-77
2023/04/07 06:16:59;;;;;;;9.97;6.33;;;;;;;;;;6374799;28;20252;-78
2023/04/07 06:20:05;;;;;;;9.73;5.93;;;;;;;;;;6358099;28;20290;-78
2023/04/07 06:23:10;;;;;;;10.70;5.67;;;;;;;;;;6355837;28;20293;-78
2023/04/07 06:26:16;;;;;;;13.93;7.33;;;;;;;;;;6343159;28;20294;-78
2023/04/07 06:29:25;;;;;;;11.47;6.17;;;;;;;;;;6342884;28;20292;-77
2023/04/07 06:32:32;;;;;;;12.33;6.43;;;;;;;;;;6343296;28;20300;-78
2023/04/07 06:35:37;;;;;;;10.70;6.20;;;;;;;;;;6341905;28;20280;-78
2023/04/07 06:38:44;;;;;;;10.60;6.07;;;;;;;;;;6342442;28;20300;-77
2023/04/07 06:41:49;;;;;;;9.40;6.07;;;;;;;;;;6360542;28;20291;-77
2023/04/07 06:44:56;;;;;;;10.13;6.37;;;;;;;;;;6360833;28;20264;-78
2023/04/07 06:48:01;;;;;;;9.97;5.70;;;;;;;;;;6360512;28;20292;-78
2023/04/07 06:51:06;;;;;;;11.13;6.03;;;;;;;;;;6361353;28;20289;-78
2023/04/07 06:54:12;;;;;;;8.67;5.87;;;;;;;;;;6359732;28;20294;-77
2023/04/07 06:57:17;;;;;;;6.53;5.13;;;;;;;;;;6359863;28;20304;-78
2023/04/07 07:00:27;;;;;;;7.70;5.70;;;;;;;;;;6360061;28;20294;-78
2023/04/07 07:03:33;;;;;;;5.63;5.13;;;;;;;;;;6359606;28;20303;-78
2023/04/07 07:06:38;;;;;;;5.47;4.80;;;;;;;;;;6359426;28;20296;-78
2023/04/07 07:09:43;;;;;;;5.80;5.03;;;;;;;;;;6356366;28;20297;-78
2023/04/07 07:12:48;;;;;;;5.23;4.70;;;;;;;;;;6340533;28;20473;-78
2023/04/07 07:15:55;;;;;;;5.03;4.63;;;;;;;;;;6339837;28;20405;-78
2023/04/07 07:19:00;;;;;;;4.27;3.97;;;;;;;;;;6339171;28;20300;-79
2023/04/07 07:22:05;;;;;;;4.83;4.43;;;;;;;;;;6339476;28;20286;-78
2023/04/07 07:25:11;;;;;;;4.60;4.20;;;;;;;;;;6340133;28;20310;-78
2023/04/07 07:28:17;;;;;;;3.57;3.27;;;;;;;;;;6339128;28;20313;-78
2023/04/07 07:31:23;;;;;;;3.77;3.60;;;;;;;;;;6338268;28;20553;-78
2023/04/07 07:34:28;;;;;;;4.50;4.10;;;;;;;;;;6338924;28;20304;-78
2023/04/07 07:37:34;;;;;;;3.60;3.50;;;;;;;;;;6338454;28;20300;-79
2023/04/07 07:40:39;;;;;;;3.80;3.60;;;;;;;;;;6338756;28;20488;-77
2023/04/07 07:43:46;;;;;;;3.47;3.10;;;;;;;;;;6337843;28;20298;-79
2023/04/07 07:46:53;;;;;;;2.80;2.70;;;;;;;;;;6337879;28;20288;-78
2023/04/07 07:49:59;;;;;;;3.03;2.93;;;;;;;;;;6338759;28;20584;-78
2023/04/07 07:53:04;;;;;;;2.57;2.57;;;;;;;;;;6337724;28;20291;-77
2023/04/07 07:56:09;;;;;;;2.67;2.57;;;;;;;;;;6338006;28;20550;-77
2023/04/07 07:59:15;;;;;;;2.83;2.73;;;;;;;;;;6337603;28;20301;-78
2023/04/07 08:02:30;;;;;;;2.73;2.63;;;;;;;;;;6337762;28;20292;-78
2023/04/07 08:05:35;;;;;;;2.37;2.37;;;;;;;;;;6336528;28;20289;-77
2023/04/07 08:08:40;;;;;;;2.60;2.50;;;;;;;;;;6337539;28;20596;-78
2023/04/07 08:11:47;;;;;;;2.93;2.83;;;;;;;;;;6341236;28;20292;-78
2023/04/07 08:14:52;;;;;;;2.90;2.80;;;;;;;;;;6363839;28;20268;-78
2023/04/07 08:17:58;;;;;;;3.20;3.10;;;;;;;;;;6362787;28;20293;-79
2023/04/07 08:21:05;;;;;;;4.30;3.90;;;;;;;;;;6362125;28;20315;-78
2023/04/07 08:24:11;;;;;;;4.00;3.80;;;;;;;;;;6362817;28;20293;-78
2023/04/07 08:27:16;;;;;;;5.23;4.83;;;;;;;;;;6362028;28;20301;-78
2023/04/07 08:30:21;;;;;;;2.93;2.80;;;;;;;;;;6345198;28;20292;-78
2023/04/07 08:33:28;;;;;;;3.33;3.20;;;;;;;;;;6362271;28;20296;-79
2023/04/07 08:36:33;;;;;;;3.60;3.33;;;;;;;;;;6362482;28;20588;-79
2023/04/07 08:39:38;;;;;;;3.97;3.67;;;;;;;;;;6343929;28;20395;-78
2023/04/07 08:42:49;;;;;;;3.10;2.90;;;;;;;;;;6362121;28;20368;-78
2023/04/07 08:45:56;;;;;;;3.50;3.30;;;;;;;;;;6362313;28;20286;-78
2023/04/07 08:49:02;;;;;;;3.80;3.60;;;;;;;;;;6343700;28;20288;-78
2023/04/07 08:52:09;;;;;;;3.20;3.10;;;;;;;;;;6361767;28;20619;-78
2023/04/07 08:55:14;;;;;;;4.03;3.73;;;;;;;;;;6361524;28;20460;-78
2023/04/07 08:58:20;;;;;;;3.53;3.43;;;;;;;;;;6342811;28;20338;-78
2023/04/07 09:01:26;;;;;;;2.20;2.20;;;;;;;;;;6361641;28;20308;-78
2023/04/07 09:04:33;;;;;;;2.77;2.67;;;;;;;;;;6361831;28;20303;-78
2023/04/07 09:07:41;;;;;;;2.57;2.47;;;;;;;;;;6361938;28;20288;-78
2023/04/07 09:10:47;;;;;;;2.03;2.03;;;;;;;;;;6345577;28;20290;-77
2023/04/07 09:13:52;;;;;;;2.00;2.00;;;;;;;;;;6359859;28;20301;-78
2023/04/07 09:16:58;;;;;;;2.00;2.00;;;;;;;;;;6361281;28;20428;-77
2023/04/07 09:20:06;;;;;;;1.80;1.80;;;;;;;;;;6362096;28;20288;-76
2023/04/07 09:23:29;;;;;;;1.73;1.73;;;;;;;;;;6361102;28;20327;-77
2023/04/07 09:26:34;;;;;;;2.10;2.10;;;;;;;;;;6361636;28;20320;-77
2023/04/07 09:29:41;;;;;;;2.10;2.00;;;;;;;;;;6361918;28;20509;-78
2023/04/07 09:32:47;;;;;;;1.97;1.97;;;;;;;;;;6360923;28;20293;-78
2023/04/07 09:35:54;;;;;;;1.80;1.80;;;;;;;;;;6360988;28;20280;-77
2023/04/07 09:39:09;;;;;;;1.80;1.80;;;;;;;;;;6354872;28;20437;-78
2023/04/07 09:42:14;;;;;;;1.37;1.37;;;;;;;;;;6359436;28;20305;-78
2023/04/07 09:45:25;;;;;;;1.70;1.60;;;;;;;;;;6360940;28;20321;-77
2023/04/07 09:48:40;;;;;;;1.47;1.47;;;;;;;;;;6360374;28;20293;-77
2023/04/07 09:51:55;;;;;;;1.30;1.30;;;;;;;;;;6359981;28;20298;-77
2023/04/07 09:55:01;;;;;;;1.83;1.70;;;;;;;;;;6361017;28;20291;-78
2023/04/07 09:58:06;;;;;;;1.70;1.70;;;;;;;;;;6360187;28;20310;-78
2023/04/07 10:01:13;;;;;;;1.60;1.60;;;;;;;;;;6360968;28;20300;-78
2023/04/07 10:04:18;;;;;;;1.63;1.63;;;;;;;;;;6358639;28;20298;-77
2023/04/07 10:07:25;;;;;;;1.70;1.70;;;;;;;;;;6358824;28;20594;-78
2023/04/07 10:10:31;;;;;;;1.80;1.80;;;;;;;;;;6345795;28;20299;-77
2023/04/07 10:13:37;;;;;;;1.63;1.63;;;;;;;;;;6355524;28;20296;-77
2023/04/07 10:16:43;;;;;;;1.73;1.73;;;;;;;;;;6359277;28;20284;-77
2023/04/07 10:19:48;;;;;;;1.70;1.70;;;;;;;;;;6360149;28;20425;-77
2023/04/07 10:22:56;;;;;;;1.87;1.87;;;;;;;;;;6359494;28;20294;-78
2023/04/07 10:26:02;;;;;;;1.80;1.80;;;;;;;;;;6359734;28;20286;-78
2023/04/07 10:29:10;;;;;;;1.87;1.87;;;;;;;;;;6359136;28;20294;-77
2023/04/07 10:32:16;;;;;;;1.80;1.80;;;;;;;;;;6358501;28;20299;-77
2023/04/07 10:35:21;;;;;;;2.00;2.00;;;;;;;;;;6359680;28;20314;-78
2023/04/07 10:38:28;;;;;;;2.10;2.10;;;;;;;;;;6358969;28;20294;-77
2023/04/07 10:41:35;;;;;;;3.50;2.00;;;;;;;;;;6358734;28;20334;-78
2023/04/07 10:44:49;;;;;;;3.53;2.10;;;;;;;;;;6358138;28;20318;-77
2023/04/07 10:48:11;;;;;;;1.93;1.83;;;;;;;;;;6359229;28;20417;-78
2023/04/07 10:51:17;;;;;;;1.80;1.80;;;;;;;;;;6358524;28;20296;-78
2023/04/07 10:54:26;;;;;;;1.97;1.97;;;;;;;;;;6358756;28;20296;-77
2023/04/07 10:57:33;;;;;;;1.90;1.90;;;;;;;;;;6358746;28;20311;-77
2023/04/07 11:00:38;;;;;;;1.83;1.83;;;;;;;;;;6358781;28;20298;-76
2023/04/07 11:03:54;;;;;;;2.47;2.37;;;;;;;;;;6357969;28;20312;-77
2023/04/07 11:07:00;;;;;;;2.10;1.97;;;;;;;;;;6358212;28;20324;-76
2023/04/07 11:10:17;;;;;;;1.80;1.80;;;;;;;;;;6348572;28;20333;-77
2023/04/07 11:13:23;;;;;;;1.60;1.60;;;;;;;;;;6353336;28;20320;-76
2023/04/07 11:16:37;;;;;;;1.73;1.73;;;;;;;;;;6358383;28;20296;-78
2023/04/07 11:19:52;;;;;;;2.07;1.97;;;;;;;;;;6359472;28;20304;-78
2023/04/07 11:23:00;;;;;;;1.90;1.80;;;;;;;;;;6358558;28;20298;-79
2023/04/07 11:26:07;;;;;;;1.70;1.70;;;;;;;;;;6359077;28;20479;-78
2023/04/07 11:29:12;;;;;;;1.70;1.70;;;;;;;;;;6357699;28;20304;-76
2023/04/07 11:32:24;;;;;;;1.83;1.83;;;;;;;;;;6358008;28;20298;-77
2023/04/07 11:35:30;;;;;;;1.73;1.73;;;;;;;;;;6340400;28;20292;-76
2023/04/07 11:38:37;;;;;;;2.10;2.10;;;;;;;;;;6338804;28;20300;-77
2023/04/07 11:41:48;;;;;;;2.00;2.00;;;;;;;;;;6358113;28;20481;-77
2023/04/07 11:44:53;;;;;;;2.93;2.93;;;;;;;;;;6358342;28;20433;-77
2023/04/07 11:47:58;;;;;;;3.17;2.97;;;;;;;;;;6357844;28;20280;-77
2023/04/07 11:51:05;;;;;;;2.03;1.93;;;;;;;;;;6358378;28;20293;-77
2023/04/07 11:54:12;;;;;;;2.10;2.00;;;;;;;;;;6357820;28;20294;-77
2023/04/07 11:57:26;;;;;;;1.80;1.80;;;;;;;;;;6361772;28;20290;-77
2023/04/07 12:00:32;;;;;;;1.87;1.87;;;;;;;;;;6363636;28;20300;-77
2023/04/07 12:03:37;;;;;;;1.83;1.83;;;;;;;;;;6362136;28;20320;-76
2023/04/07 12:06:43;;;;;;;1.80;1.80;;;;;;;;;;6362320;28;20582;-77
2023/04/07 12:09:48;;;;;;;1.77;1.73;;;;;;;;;;6354824;28;20348;-77
2023/04/07 12:12:55;;;;;;;1.70;1.70;;;;;;;;;;6337143;28;20294;-77
2023/04/07 12:16:03;;;;;;;1.83;1.83;;;;;;;;;;6336468;28;20300;-76
2023/04/07 12:19:08;;;;;;;2.07;2.07;;;;;;;;;;6337344;28;20380;-77
2023/04/07 12:22:14;;;;;;;2.30;2.30;;;;;;;;;;6335699;28;20507;-77
2023/04/07 12:25:19;;;;;;;2.27;2.17;;;;;;;;;;6337487;28;20302;-77
2023/04/07 12:28:26;;;;;;;1.87;1.87;;;;;;;;;;6337574;28;20303;-77
2023/04/07 12:31:32;;;;;;;1.60;1.60;;;;;;;;;;6337053;28;20295;-77
2023/04/07 12:34:38;;;;;;;1.80;1.80;;;;;;;;;;6337650;28;20615;-77
2023/04/07 12:37:45;;;;;;;1.87;1.87;;;;;;;;;;6336998;28;20306;-76
2023/04/07 12:40:53;;;;;;;2.43;2.23;;;;;;;;;;6337551;28;20298;-78
2023/04/07 12:44:00;;;;;;;2.00;2.00;;;;;;;;;;6336691;28;20605;-77
2023/04/07 12:47:05;;;;;;;1.90;1.90;;;;;;;;;;6336779;28;20285;-77
2023/04/07 12:50:11;;;;;;;1.90;1.90;;;;;;;;;;6337380;28;20290;-77
2023/04/07 12:53:16;;;;;;;1.80;1.80;;;;;;;;;;6338812;28;20306;-77
2023/04/07 12:56:21;;;;;;;1.80;1.80;;;;;;;;;;6336655;28;20282;-77
2023/04/07 12:59:29;;;;;;;1.70;1.70;;;;;;;;;;6336670;28;20387;-77
2023/04/07 13:02:36;;;;;;;1.80;1.80;;;;;;;;;;6336585;28;20302;-78
2023/04/07 13:05:41;;;;;;;1.93;1.93;;;;;;;;;;6359376;28;20295;-77
2023/04/07 13:08:47;;;;;;;1.97;1.80;;;;;;;;;;6361504;28;20295;-77
2023/04/07 13:11:52;;;;;;;1.80;1.80;;;;;;;;;;6342958;28;20287;-78
2023/04/07 13:14:58;;;;;;;1.77;1.70;;;;;;;;;;6361389;28;20440;-77
2023/04/07 13:18:04;;;;;;;1.80;1.80;;;;;;;;;;6361118;28;20463;-77
2023/04/07 13:21:11;;;;;;;2.43;2.33;;;;;;;;;;6361444;28;20295;-77
2023/04/07 13:24:36;;;;;;;3.70;3.50;;;;;;;;;;6342209;28;20298;-77
2023/04/07 13:27:41;;;;;;;2.47;2.47;;;;;;;;;;6360919;28;20294;-77
2023/04/07 13:30:48;;;;;;;2.00;2.00;;;;;;;;;;6360702;28;20465;-78
2023/04/07 13:33:53;;;;;;;2.23;2.13;;;;;;;;;;6342251;28;20588;-77
2023/04/07 13:36:58;;;;;;;2.10;2.10;;;;;;;;;;6360464;28;20296;-77
2023/04/07 13:40:03;;;;;;;1.80;1.80;;;;;;;;;;6360978;28;20486;-77
2023/04/07 13:43:10;;;;;;;1.87;1.87;;;;;;;;;;6360272;28;20312;-77
2023/04/07 13:46:17;;;;;;;4.20;2.23;;;;;;;;;;6360798;28;20287;-77
2023/04/07 13:49:32;;;;;;;2.23;2.10;;;;;;;;;;6358780;28;20364;-77
2023/04/07 13:52:37;;;;;;;2.93;2.77;;;;;;;;;;6360131;28;20300;-77
2023/04/07 13:55:42;;;;;;;2.30;2.20;;;;;;;;;;6360757;28;20291;-76
2023/04/07 13:58:48;;;;;;;2.47;2.37;;;;;;;;;;6359537;28;20299;-76
2023/04/07 14:01:54;;;;;;;2.23;2.13;;;;;;;;;;6359890;28;20288;-77
2023/04/07 14:05:00;;;;;;;2.17;1.97;;;;;;;;;;6360004;28;20318;-76
2023/04/07 14:08:05;;;;;;;2.03;2.03;;;;;;;;;;6359973;28;20443;-77
2023/04/07 14:11:10;;;;;;;2.10;2.00;;;;;;;;;;6340998;28;20291;-77
2023/04/07 14:14:15;;;;;;;1.93;1.93;;;;;;;;;;6334884;28;20296;-76
2023/04/07 14:17:22;;;;;;;2.10;1.90;;;;;;;;;;6334067;28;20300;-77
2023/04/07 14:20:35;;;;;;;1.93;1.83;;;;;;;;;;6306284;28;20435;-77
2023/04/07 14:23:41;;;;;;;2.40;2.30;;;;;;;;;;6334390;28;20585;-76
2023/04/07 14:26:46;;;;;;;3.67;3.57;;;;;;;;;;6334740;28;20288;-77
2023/04/07 14:29:52;;;;;;;3.33;3.00;;;;;;;;;;6334549;28;20274;-77
2023/04/07 14:32:59;;;;;;;2.00;2.00;;;;;;;;;;6333682;28;20572;-77
2023/04/07 14:36:07;;;;;;;2.40;2.20;;;;;;;;;;6334752;28;20292;-77
2023/04/07 14:39:13;;;;;;;2.43;2.33;;;;;;;;;;6333948;28;20301;-76
2023/04/07 14:42:18;;;;;;;2.83;2.50;;;;;;;;;;6333964;28;20300;-76
2023/04/07 14:45:23;;;;;;;3.07;2.40;;;;;;;;;;6334260;28;20298;-77
2023/04/07 14:48:30;;;;;;;2.33;2.23;;;;;;;;;;6331937;28;20430;-77
2023/04/07 14:51:35;;;;;;;2.50;2.40;;;;;;;;;;6333510;28;20296;-77
2023/04/07 14:54:42;;;;;;;2.13;2.13;;;;;;;;;;6334158;28;20292;-77
2023/04/07 14:57:47;;;;;;;2.77;2.67;;;;;;;;;;6333387;28;20402;-78
2023/04/07 15:00:52;;;;;;;2.60;2.40;;;;;;;;;;6334111;28;20424;-77
2023/04/07 15:03:59;;;;;;;2.17;2.10;;;;;;;;;;6342553;28;20311;-77
2023/04/07 15:07:05;;;;;;;2.13;2.13;;;;;;;;;;6358823;28;20304;-78
2023/04/07 15:10:11;;;;;;;2.33;2.23;;;;;;;;;;6358891;28;20292;-76
2023/04/07 15:13:16;;;;;;;2.97;2.87;;;;;;;;;;6358359;28;20310;-77
2023/04/07 15:16:21;;;;;;;2.33;2.33;;;;;;;;;;6358582;28;20284;-77
2023/04/07 15:19:28;;;;;;;2.40;2.30;;;;;;;;;;6358883;28;20292;-77
2023/04/07 15:22:33;;;;;;;2.17;2.17;;;;;;;;;;6358649;28;20292;-78
2023/04/07 15:25:38;;;;;;;2.23;2.23;;;;;;;;;;6358651;28;20556;-76
2023/04/07 15:28:43;;;;;;;2.27;2.17;;;;;;;;;;6358491;28;20295;-77
2023/04/07 15:31:48;;;;;;;2.17;2.17;;;;;;;;;;6363646;28;20312;-77
2023/04/07 15:34:55;;;;;;;3.00;2.90;;;;;;;;;;6363711;28;20296;-78
2023/04/07 15:38:00;;;;;;;3.20;2.97;;;;;;;;;;6344908;28;20300;-77
2023/04/07 15:41:05;;;;;;;2.33;2.20;;;;;;;;;;6363684;28;20290;-77
2023/04/07 15:44:18;;;;;;;2.30;2.20;;;;;;;;;;6363132;28;20307;-77
2023/04/07 15:47:23;;;;;;;2.43;2.33;;;;;;;;;;6363132;28;20295;-77
2023/04/07 15:50:30;;;;;;;2.50;2.40;;;;;;;;;;6363424;28;20414;-78
2023/04/07 15:53:35;;;;;;;2.10;2.07;;;;;;;;;;6361965;28;20295;-77
2023/04/07 15:56:40;;;;;;;2.23;2.23;;;;;;;;;;6362945;28;20292;-77
2023/04/07 15:59:46;;;;;;;2.20;2.10;;;;;;;;;;6363429;28;20275;-77
2023/04/07 16:02:51;;;;;;;2.80;2.23;;;;;;;;;;6362755;28;20292;-78
2023/04/07 16:05:57;;;;;;;3.10;2.50;;;;;;;;;;6312601;28;20285;-77
2023/04/07 16:09:03;;;;;;;2.70;2.50;;;;;;;;;;6312747;28;20292;-77
2023/04/07 16:12:13;;;;;;;2.10;2.10;;;;;;;;;;6327381;28;20296;-77
2023/04/07 16:15:18;;;;;;;1.70;1.70;;;;;;;;;;6312812;28;20291;-77
2023/04/07 16:18:40;;;;;;;1.97;1.97;;;;;;;;;;6312098;28;20300;-77
2023/04/07 16:21:46;;;;;;;2.27;2.17;;;;;;;;;;6312090;28;20301;-76
2023/04/07 16:24:51;;;;;;;2.20;2.20;;;;;;;;;;6311943;28;20312;-76
2023/04/07 16:27:57;;;;;;;2.10;2.10;;;;;;;;;;6312232;28;20604;-76
2023/04/07 16:31:04;;;;;;;2.30;2.20;;;;;;;;;;6311553;28;20474;-77
2023/04/07 16:34:09;;;;;;;2.20;2.20;;;;;;;;;;6312731;28;20301;-77
2023/04/07 16:37:16;;;;;;;2.33;2.23;;;;;;;;;;6312415;28;20331;-78
2023/04/07 16:40:21;;;;;;;2.73;2.10;;;;;;;;;;6310015;28;20345;-77
2023/04/07 16:43:26;;;;;;;2.30;2.30;;;;;;;;;;6312012;28;20292;-77
2023/04/07 16:46:32;;;;;;;3.37;2.23;;;;;;;;;;6312797;28;20299;-78
2023/04/07 16:49:39;;;;;;;2.30;2.30;;;;;;;;;;6311955;28;20394;-78
2023/04/07 16:52:46;;;;;;;2.13;2.03;;;;;;;;;;6312013;28;20604;-77
2023/04/07 16:55:55;;;;;;;6.23;2.43;;;;;;;;;;6312630;28;20294;-77
2023/04/07 16:58:59;;;;;;;2.90;2.30;;;;;;;;;;6310524;28;20604;-78
2023/04/07 17:02:09;;;;;;;2.73;2.50;;;;;;;;;;6311855;28;20297;-76
2023/04/07 17:05:16;;;;;;;3.00;2.50;;;;;;;;;;6313798;28;20360;-78
2023/04/07 17:08:24;;;;;;;3.10;2.80;;;;;;;;;;6337034;28;20485;-77
2023/04/07 17:11:29;;;;;;;2.80;2.60;;;;;;;;;;6359184;28;20294;-78
2023/04/07 17:14:35;;;;;;;3.00;2.90;;;;;;;;;;6339084;28;20358;-77
2023/04/07 17:17:40;;;;;;;2.57;2.43;;;;;;;;;;6339329;28;20292;-76
2023/04/07 17:20:45;;;;;;;2.37;2.30;;;;;;;;;;6340114;28;20287;-77
2023/04/07 17:23:55;;;;;;;2.50;2.40;;;;;;;;;;6335744;28;20299;-78
2023/04/07 17:27:03;;;;;;;3.07;2.97;;;;;;;;;;6335505;28;20292;-77
2023/04/07 17:30:09;;;;;;;2.50;2.47;;;;;;;;;;6335740;28;20296;-77
2023/04/07 17:33:15;;;;;;;2.57;2.23;;;;;;;;;;6336102;28;20486;-77
2023/04/07 17:36:20;;;;;;;10.47;4.23;;;;;;;;;;6334978;28;20294;-77
2023/04/07 17:39:26;;;;;;;10.47;4.57;;;;;;;;;;6336887;28;20291;-77
2023/04/07 17:42:32;;;;;;;3.80;2.70;;;;;;;;;;6335548;28;20295;-78
2023/04/07 17:45:37;;;;;;;2.90;2.40;;;;;;;;;;6335781;28;20311;-77
2023/04/07 17:48:43;;;;;;;3.23;3.07;;;;;;;;;;6336331;28;20308;-78
2023/04/07 17:51:48;;;;;;;3.10;2.83;;;;;;;;;;6335749;28;20520;-77
2023/04/07 17:54:55;;;;;;;2.63;2.53;;;;;;;;;;6335543;28;20295;-77
2023/04/07 17:58:02;;;;;;;2.40;2.30;;;;;;;;;;6334331;28;20302;-78
2023/04/07 18:01:09;;;;;;;2.77;2.67;;;;;;;;;;6334522;28;20292;-78
2023/04/07 18:04:15;;;;;;;3.70;2.73;;;;;;;;;;6347107;28;20300;-77
2023/04/07 18:07:21;;;;;;;2.33;2.33;;;;;;;;;;6360424;28;20298;-78
2023/04/07 18:10:27;;;;;;;2.67;2.57;;;;;;;;;;6360829;28;20292;-77
2023/04/07 18:13:33;;;;;;;2.93;2.83;;;;;;;;;;6356099;28;20298;-77
2023/04/07 18:16:39;;;;;;;2.40;2.40;;;;;;;;;;6360707;28;20294;-78
2023/04/07 18:19:44;;;;;;;2.53;2.40;;;;;;;;;;6343013;28;20326;-78
2023/04/07 18:22:51;;;;;;;2.70;2.50;;;;;;;;;;6360411;28;20318;-78
2023/04/07 18:26:00;;;;;;;2.20;2.10;;;;;;;;;;6361130;28;20295;-78
2023/04/07 18:29:06;;;;;;;3.30;3.20;;;;;;;;;;6342413;28;20294;-77
2023/04/07 18:32:14;;;;;;;3.10;2.90;;;;;;;;;;6360133;28;20295;-78
2023/04/07 18:35:20;;;;;;;2.53;2.43;;;;;;;;;;6361221;28;20605;-77
2023/04/07 18:38:25;;;;;;;2.57;2.47;;;;;;;;;;6359449;28;20324;-77
2023/04/07 18:41:33;;;;;;;2.77;2.67;;;;;;;;;;6360174;28;20299;-77